createdAt,value
2019-04-14T00:00:57.848Z,0.00
2019-04-14T00:01:58.790Z,0.00
2019-04-14T00:02:57.921Z,0.00
2019-04-14T00:03:58.723Z,0.00
2019-04-14T00:04:57.990Z,0.00
2019-04-14T00:05:58.335Z,0.00
2019-04-14T00:06:59.136Z,0.00
2019-04-14T00:07:58.178Z,0.00
2019-04-14T00:08:58.594Z,0.00
2019-04-14T00:09:58.520Z,0.00
2019-04-14T00:10:59.308Z,0.00
2019-04-14T00:11:59.073Z,0.00
2019-04-14T00:12:58.270Z,0.00
2019-04-14T00:13:58.862Z,0.00
2019-04-14T00:14:58.338Z,0.00
2019-04-14T00:15:58.896Z,0.00
2019-04-14T00:16:59.554Z,0.00
2019-04-14T00:17:58.969Z,0.00
2019-04-14T00:18:58.485Z,0.00
2019-04-14T00:19:58.832Z,0.00
2019-04-14T00:20:59.774Z,0.00
2019-04-14T00:21:58.705Z,0.00
2019-04-14T00:22:59.699Z,0.00
2019-04-14T00:23:58.889Z,0.00
2019-04-14T00:24:59.745Z,0.00
2019-04-14T00:25:58.724Z,0.00
2019-04-14T00:26:59.544Z,0.00
2019-04-14T00:27:58.795Z,0.00
2019-04-14T00:29:00.046Z,0.00
2019-04-14T00:29:59.031Z,0.00
2019-04-14T00:30:59.871Z,0.00
2019-04-14T00:31:58.932Z,0.00
2019-04-14T00:32:59.462Z,0.00
2019-04-14T00:33:59.004Z,0.00
2019-04-14T00:34:59.403Z,0.00
2019-04-14T00:36:00.132Z,0.00
2019-04-14T00:36:59.106Z,0.00
2019-04-14T00:37:59.817Z,0.00
2019-04-14T00:38:59.176Z,0.00
2019-04-14T00:39:59.743Z,0.00
2019-04-14T00:40:59.255Z,0.00
2019-04-14T00:42:02.135Z,0.00
2019-04-14T00:43:00.492Z,0.00
2019-04-14T00:43:59.356Z,0.00
2019-04-14T00:45:00.461Z,0.00
2019-04-14T00:46:00.998Z,0.00
2019-04-14T00:47:00.541Z,0.00
2019-04-14T00:48:06.406Z,0.00
2019-04-14T00:49:00.525Z,0.00
2019-04-14T00:49:59.585Z,0.00
2019-04-14T00:51:00.583Z,0.00
2019-04-14T00:51:59.661Z,0.00
2019-04-14T00:52:59.665Z,0.00
2019-04-14T00:54:00.222Z,0.00
2019-04-14T00:55:00.926Z,0.00
2019-04-14T00:55:59.819Z,0.00
2019-04-14T00:57:00.883Z,0.00
2019-04-14T00:57:59.849Z,0.00
2019-04-14T00:59:00.584Z,0.00
2019-04-14T00:59:59.918Z,0.00
2019-04-14T01:01:00.462Z,0.00
2019-04-14T01:02:01.234Z,0.00
2019-04-14T01:03:00.407Z,0.00
2019-04-14T01:04:01.173Z,0.00
2019-04-14T01:05:00.212Z,0.00
2019-04-14T01:06:01.166Z,0.00
2019-04-14T01:07:00.199Z,0.00
2019-04-14T01:08:00.955Z,0.00
2019-04-14T01:09:00.248Z,0.00
2019-04-14T01:10:00.261Z,0.00
2019-04-14T01:11:01.044Z,0.00
2019-04-14T01:12:00.329Z,0.00
2019-04-14T01:13:00.635Z,0.00
2019-04-14T01:14:01.495Z,0.00
2019-04-14T01:15:00.739Z,0.00
2019-04-14T01:16:07.050Z,0.00
2019-04-14T01:17:00.517Z,0.00
2019-04-14T01:18:01.501Z,0.00
2019-04-14T01:19:00.571Z,0.00
2019-04-14T01:20:01.464Z,0.00
2019-04-14T01:21:00.640Z,0.00
2019-04-14T01:22:01.032Z,0.00
2019-04-14T01:23:01.957Z,0.00
2019-04-14T01:24:01.037Z,0.00
2019-04-14T01:25:02.206Z,0.00
2019-04-14T01:26:00.867Z,0.00
2019-04-14T01:27:01.699Z,0.00
2019-04-14T01:28:00.884Z,0.00
2019-04-14T01:29:01.471Z,0.00
2019-04-14T01:30:00.952Z,0.00
2019-04-14T01:31:01.223Z,0.00
2019-04-14T01:32:02.233Z,0.00
2019-04-14T01:33:01.151Z,0.00
2019-04-14T01:34:01.975Z,0.00
2019-04-14T01:35:01.128Z,0.00
2019-04-14T01:36:01.763Z,0.00
2019-04-14T01:37:01.203Z,0.00
2019-04-14T01:38:01.618Z,0.00
2019-04-14T01:39:02.457Z,0.00
2019-04-14T01:40:01.299Z,0.00
2019-04-14T01:41:02.130Z,0.00
2019-04-14T01:42:01.373Z,0.00
2019-04-14T01:43:01.701Z,0.00
2019-04-14T01:44:02.459Z,0.00
2019-04-14T01:45:01.481Z,0.00
2019-04-14T01:46:10.714Z,0.00
2019-04-14T01:47:01.549Z,0.00
2019-04-14T01:48:01.778Z,0.00
2019-04-14T01:49:02.819Z,0.00
2019-04-14T01:50:01.834Z,0.00
2019-04-14T01:51:02.691Z,0.00
2019-04-14T01:52:01.716Z,0.00
2019-04-14T01:53:01.751Z,0.00
2019-04-14T01:54:01.847Z,0.00
2019-04-14T01:55:02.894Z,0.00
2019-04-14T01:56:01.860Z,0.00
2019-04-14T01:57:02.472Z,0.00
2019-04-14T01:58:03.012Z,0.00
2019-04-14T01:59:02.187Z,0.00
2019-04-14T02:00:03.183Z,0.00
2019-04-14T02:01:02.031Z,0.00
2019-04-14T02:02:03.014Z,0.00
2019-04-14T02:03:02.201Z,0.00
2019-04-14T02:04:02.952Z,0.00
2019-04-14T02:05:02.169Z,0.00
2019-04-14T02:06:02.600Z,0.00
2019-04-14T02:07:02.237Z,0.00
2019-04-14T02:08:02.414Z,0.00
2019-04-14T02:09:03.266Z,0.00
2019-04-14T02:10:02.344Z,0.00
2019-04-14T02:11:03.011Z,0.00
2019-04-14T02:12:03.744Z,0.00
2019-04-14T02:13:02.816Z,0.00
2019-04-14T02:14:03.618Z,0.00
2019-04-14T02:15:02.882Z,0.00
2019-04-14T02:16:16.528Z,0.00
2019-04-14T02:17:04.443Z,0.00
2019-04-14T02:18:03.236Z,0.00
2019-04-14T02:19:02.667Z,0.00
2019-04-14T02:20:03.352Z,0.00
2019-04-14T02:21:02.731Z,0.00
2019-04-14T02:22:02.820Z,0.00
2019-04-14T02:23:04.029Z,0.00
2019-04-14T02:24:02.865Z,0.00
2019-04-14T02:25:03.606Z,0.00
2019-04-14T02:26:02.903Z,0.00
2019-04-14T02:27:03.479Z,0.00
2019-04-14T02:28:02.965Z,0.00
2019-04-14T02:29:03.630Z,0.00
2019-04-14T02:30:03.845Z,0.00
2019-04-14T02:31:18.026Z,0.00
2019-04-14T02:33:37.755Z,0.00
2019-04-14T02:34:34.321Z,0.00
2019-04-14T02:35:40.712Z,0.00
2019-04-14T02:36:35.744Z,0.00
2019-04-14T02:37:26.358Z,0.00
2019-04-14T02:38:45.300Z,0.00
2019-04-14T02:39:35.903Z,0.00
2019-04-14T02:40:37.093Z,0.00
2019-04-14T02:43:39.626Z,0.00
2019-04-14T02:44:32.477Z,0.00
2019-04-14T02:45:35.111Z,0.00
2019-04-14T02:46:34.445Z,0.00
2019-04-14T02:50:24.491Z,0.00
2019-04-14T02:51:38.498Z,0.00
2019-04-14T02:52:35.726Z,0.00
2019-04-14T02:53:32.579Z,0.00
2019-04-14T02:54:36.044Z,0.00
2019-04-14T02:55:37.967Z,0.00
2019-04-14T02:56:49.885Z,0.00
2019-04-14T02:57:33.941Z,0.00
2019-04-14T02:58:40.411Z,0.00
2019-04-14T02:59:29.097Z,0.00
2019-04-14T03:00:35.659Z,0.00
2019-04-14T03:03:35.635Z,0.00
2019-04-14T03:04:25.792Z,0.00
2019-04-14T03:05:26.096Z,0.00
2019-04-14T03:06:26.016Z,0.00
2019-04-14T03:07:30.264Z,0.00
2019-04-14T03:08:34.260Z,0.00
2019-04-14T03:09:37.956Z,0.00
2019-04-14T03:10:31.876Z,0.00
2019-04-14T03:11:34.506Z,0.00
2019-04-14T03:12:36.227Z,0.00
2019-04-14T03:13:35.082Z,0.00
2019-04-14T03:14:30.767Z,0.00
2019-04-14T03:15:31.846Z,0.00
2019-04-14T03:16:43.631Z,0.00
2019-04-14T03:17:29.145Z,0.00
2019-04-14T03:19:38.661Z,0.00
2019-04-14T03:20:32.140Z,0.00
2019-04-14T03:21:34.803Z,0.00
2019-04-14T03:23:34.869Z,0.00
2019-04-14T03:24:31.597Z,0.00
2019-04-14T03:25:22.514Z,0.00
2019-04-14T03:26:26.171Z,0.00
2019-04-14T03:27:43.861Z,0.00
2019-04-14T03:28:36.524Z,0.00
2019-04-14T03:29:46.157Z,0.00
2019-04-14T03:31:03.952Z,0.00
2019-04-14T03:31:53.726Z,0.00
2019-04-14T03:32:53.140Z,0.00
2019-04-14T03:34:39.254Z,0.00
2019-04-14T03:36:05.814Z,0.00
2019-04-14T03:37:45.265Z,0.00
2019-04-14T03:38:34.462Z,0.00
2019-04-14T03:39:44.227Z,0.00
2019-04-14T03:40:34.302Z,0.00
2019-04-14T03:41:48.905Z,0.00
2019-04-14T03:42:37.859Z,0.00
2019-04-14T03:43:30.790Z,0.00
2019-04-14T03:44:37.596Z,0.00
2019-04-14T03:45:43.322Z,0.00
2019-04-14T03:47:38.043Z,0.00
2019-04-14T03:49:37.456Z,0.00
2019-04-14T03:50:31.448Z,0.00
2019-04-14T03:52:41.618Z,0.00
2019-04-14T03:53:46.078Z,0.00
2019-04-14T03:54:27.330Z,0.00
2019-04-14T03:55:20.465Z,0.00
2019-04-14T03:56:10.384Z,4.00
2019-04-14T03:57:06.272Z,4.00
2019-04-14T03:58:08.226Z,4.00
2019-04-14T03:59:06.475Z,4.00
2019-04-14T04:00:07.360Z,4.00
2019-04-14T04:01:06.228Z,8.00
2019-04-14T04:02:07.431Z,4.00
2019-04-14T04:03:06.393Z,4.00
2019-04-14T04:04:07.403Z,8.00
2019-04-14T04:05:06.479Z,8.00
2019-04-14T04:06:07.462Z,8.00
2019-04-14T04:07:06.393Z,12.00
2019-04-14T04:08:07.171Z,16.00
2019-04-14T04:09:06.451Z,16.00
2019-04-14T04:10:07.250Z,16.00
2019-04-14T04:11:06.521Z,20.00
2019-04-14T04:12:07.468Z,24.00
2019-04-14T04:13:06.589Z,32.00
2019-04-14T04:14:07.427Z,36.00
2019-04-14T04:15:06.689Z,40.00
2019-04-14T04:16:07.161Z,44.00
2019-04-14T04:17:07.866Z,56.00
2019-04-14T04:18:07.028Z,64.00
2019-04-14T04:19:12.968Z,72.00
2019-04-14T04:20:06.840Z,80.00
2019-04-14T04:21:07.395Z,92.00
2019-04-14T04:22:06.899Z,100.00
2019-04-14T04:23:07.409Z,116.00
2019-04-14T04:24:06.966Z,128.00
2019-04-14T04:25:07.326Z,144.00
2019-04-14T04:26:08.180Z,160.00
2019-04-14T04:27:07.069Z,180.00
2019-04-14T04:28:08.041Z,196.00
2019-04-14T04:29:07.141Z,216.00
2019-04-14T04:30:08.080Z,240.00
2019-04-14T04:31:07.209Z,260.00
2019-04-14T04:32:07.818Z,288.00
2019-04-14T04:33:07.283Z,312.00
2019-04-14T04:34:07.635Z,340.00
2019-04-14T04:35:08.477Z,368.00
2019-04-14T04:36:07.425Z,396.00
2019-04-14T04:37:08.261Z,428.00
2019-04-14T04:38:07.448Z,460.00
2019-04-14T04:39:08.280Z,496.00
2019-04-14T04:40:07.515Z,524.00
2019-04-14T04:41:08.037Z,564.00
2019-04-14T04:42:07.584Z,600.00
2019-04-14T04:43:07.980Z,640.00
2019-04-14T04:44:07.652Z,680.00
2019-04-14T04:45:08.148Z,720.00
2019-04-14T04:46:07.726Z,764.00
2019-04-14T04:47:07.826Z,796.00
2019-04-14T04:48:08.913Z,828.00
2019-04-14T04:49:14.466Z,864.00
2019-04-14T04:50:08.605Z,892.00
2019-04-14T04:51:07.893Z,928.00
2019-04-14T04:52:11.094Z,972.00
2019-04-14T04:53:09.084Z,1016.00
2019-04-14T04:54:08.212Z,1060.00
2019-04-14T04:55:08.866Z,1112.00
2019-04-14T04:56:08.080Z,1176.00
2019-04-14T04:57:08.884Z,1248.00
2019-04-14T04:58:08.131Z,1320.00
2019-04-14T04:59:08.172Z,1404.00
2019-04-14T05:00:09.237Z,1492.00
2019-04-14T05:01:08.237Z,1580.00
2019-04-14T05:02:09.074Z,1660.00
2019-04-14T05:03:08.306Z,1744.00
2019-04-14T05:04:09.062Z,1832.00
2019-04-14T05:05:08.372Z,1920.00
2019-04-14T05:06:09.100Z,2004.00
2019-04-14T05:07:09.789Z,2092.00
2019-04-14T05:08:08.693Z,2192.00
2019-04-14T05:09:08.511Z,2292.00
2019-04-14T05:10:08.871Z,2384.00
2019-04-14T05:11:09.667Z,2464.00
2019-04-14T05:12:09.050Z,2536.00
2019-04-14T05:13:09.394Z,2612.00
2019-04-14T05:14:08.807Z,2700.00
2019-04-14T05:15:09.454Z,2768.00
2019-04-14T05:16:08.750Z,2840.00
2019-04-14T05:17:08.785Z,2908.00
2019-04-14T05:18:09.107Z,2972.00
2019-04-14T05:19:18.553Z,3052.00
2019-04-14T05:20:09.558Z,3124.00
2019-04-14T05:21:10.276Z,3196.00
2019-04-14T05:22:09.266Z,3264.00
2019-04-14T05:23:10.132Z,3312.00
2019-04-14T05:24:09.336Z,3364.00
2019-04-14T05:25:10.068Z,3432.00
2019-04-14T05:26:09.306Z,3508.00
2019-04-14T05:27:10.020Z,3572.00
2019-04-14T05:28:09.178Z,3632.00
2019-04-14T05:29:10.003Z,3668.00
2019-04-14T05:30:09.248Z,3704.00
2019-04-14T05:31:09.794Z,3732.00
2019-04-14T05:32:09.304Z,3780.00
2019-04-14T05:33:09.636Z,3852.00
2019-04-14T05:34:09.371Z,3932.00
2019-04-14T05:35:09.733Z,3988.00
2019-04-14T05:36:10.640Z,4012.00
2019-04-14T05:37:09.475Z,4068.00
2019-04-14T05:38:10.500Z,4152.00
2019-04-14T05:39:09.544Z,4216.00
2019-04-14T05:40:10.299Z,4296.00
2019-04-14T05:41:09.612Z,4332.00
2019-04-14T05:42:17.180Z,4368.00
2019-04-14T05:43:09.684Z,4432.00
2019-04-14T05:44:09.981Z,4500.00
2019-04-14T05:45:09.758Z,4560.00
2019-04-14T05:46:09.930Z,4584.00
2019-04-14T05:47:10.994Z,4672.00
2019-04-14T05:48:09.855Z,4804.00
2019-04-14T05:49:12.076Z,4952.00
2019-04-14T05:50:09.934Z,5148.00
2019-04-14T05:51:11.020Z,5312.00
2019-04-14T05:52:10.010Z,5420.00
2019-04-14T05:53:11.013Z,5528.00
2019-04-14T05:54:10.067Z,5688.00
2019-04-14T05:55:11.189Z,5820.00
2019-04-14T05:56:10.133Z,5936.00
2019-04-14T05:57:11.182Z,6052.00
2019-04-14T05:58:10.202Z,6128.00
2019-04-14T05:59:11.281Z,6180.00
2019-04-14T06:00:10.435Z,6244.00
2019-04-14T06:01:11.331Z,6308.00
2019-04-14T06:02:11.503Z,6364.00
2019-04-14T06:03:10.417Z,6436.00
2019-04-14T06:04:11.408Z,6496.00
2019-04-14T06:05:12.634Z,6568.00
2019-04-14T06:06:10.482Z,6636.00
2019-04-14T06:07:10.535Z,6740.00
2019-04-14T06:08:10.552Z,6892.00
2019-04-14T06:09:10.590Z,7100.00
2019-04-14T06:10:10.629Z,7340.00
2019-04-14T06:11:10.658Z,7564.00
2019-04-14T06:12:10.692Z,7756.00
2019-04-14T06:13:11.853Z,7912.00
2019-04-14T06:14:10.771Z,8052.00
2019-04-14T06:15:10.796Z,8216.00
2019-04-14T06:16:10.833Z,8356.00
2019-04-14T06:17:10.873Z,8448.00
2019-04-14T06:18:10.902Z,8484.00
2019-04-14T06:19:10.940Z,8444.00
2019-04-14T06:20:10.978Z,8372.00
2019-04-14T06:21:11.008Z,8312.00
2019-04-14T06:22:11.054Z,8272.00
2019-04-14T06:23:11.084Z,8248.00
2019-04-14T06:24:11.117Z,8240.00
2019-04-14T06:25:11.155Z,8188.00
2019-04-14T06:26:11.193Z,8096.00
2019-04-14T06:27:11.219Z,7960.00
2019-04-14T06:28:11.254Z,7880.00
2019-04-14T06:29:11.292Z,7904.00
2019-04-14T06:30:11.326Z,7892.00
2019-04-14T06:31:11.363Z,7764.00
2019-04-14T06:32:11.397Z,7556.00
2019-04-14T06:33:11.431Z,7296.00
2019-04-14T06:34:11.470Z,7108.00
2019-04-14T06:35:11.507Z,7088.00
2019-04-14T06:36:11.539Z,7152.00
2019-04-14T06:37:11.575Z,7288.00
2019-04-14T06:38:11.615Z,7452.00
2019-04-14T06:39:11.646Z,7596.00
2019-04-14T06:40:11.681Z,7700.00
2019-04-14T06:41:11.716Z,7756.00
2019-04-14T06:42:11.754Z,7796.00
2019-04-14T06:43:11.839Z,7824.00
2019-04-14T06:44:11.823Z,7848.00
2019-04-14T06:45:11.862Z,7872.00
2019-04-14T06:46:11.895Z,7912.00
2019-04-14T06:47:11.937Z,7936.00
2019-04-14T06:48:11.970Z,7984.00
2019-04-14T06:49:12.007Z,8032.00
2019-04-14T06:50:12.039Z,8060.00
2019-04-14T06:51:12.079Z,8088.00
2019-04-14T06:52:12.115Z,8124.00
2019-04-14T06:53:12.145Z,8160.00
2019-04-14T06:54:12.180Z,8184.00
2019-04-14T06:55:12.222Z,8200.00
2019-04-14T06:56:12.252Z,8216.00
2019-04-14T06:57:12.289Z,8232.00
2019-04-14T06:58:12.343Z,8260.00
2019-04-14T06:59:12.361Z,8292.00
2019-04-14T07:00:12.397Z,8324.00
2019-04-14T07:01:12.434Z,8352.00
2019-04-14T07:02:12.470Z,8372.00
2019-04-14T07:03:12.505Z,8404.00
2019-04-14T07:04:12.549Z,8420.00
2019-04-14T07:05:12.576Z,8424.00
2019-04-14T07:06:12.614Z,8408.00
2019-04-14T07:07:12.653Z,8396.00
2019-04-14T07:08:12.686Z,8408.00
2019-04-14T07:09:12.721Z,8436.00
2019-04-14T07:10:12.761Z,8420.00
2019-04-14T07:11:12.798Z,8352.00
2019-04-14T07:12:12.883Z,8312.00
2019-04-14T07:13:13.974Z,8304.00
2019-04-14T07:14:12.906Z,8304.00
2019-04-14T07:15:12.944Z,8264.00
2019-04-14T07:16:12.991Z,8232.00
2019-04-14T07:17:13.015Z,8224.00
2019-04-14T07:18:13.051Z,8216.00
2019-04-14T07:19:13.091Z,8216.00
2019-04-14T07:20:13.125Z,8204.00
2019-04-14T07:21:13.163Z,8180.00
2019-04-14T07:22:13.241Z,8192.00
2019-04-14T07:23:13.231Z,8136.00
2019-04-14T07:24:13.287Z,8136.00
2019-04-14T07:25:13.304Z,8152.00
2019-04-14T07:26:13.343Z,8172.00
2019-04-14T07:27:13.378Z,8200.00
2019-04-14T07:28:13.414Z,8228.00
2019-04-14T07:29:14.832Z,8236.00
2019-04-14T07:30:13.488Z,8272.00
2019-04-14T07:31:13.541Z,8292.00
2019-04-14T07:32:13.565Z,8308.00
2019-04-14T07:33:13.606Z,8320.00
2019-04-14T07:34:13.634Z,8324.00
2019-04-14T07:35:13.671Z,8336.00
2019-04-14T07:36:13.717Z,8352.00
2019-04-14T07:37:13.752Z,8336.00
2019-04-14T07:38:13.780Z,8308.00
2019-04-14T07:39:13.820Z,8284.00
2019-04-14T07:40:13.860Z,8268.00
2019-04-14T07:41:13.892Z,8224.00
2019-04-14T07:42:13.928Z,8176.00
2019-04-14T07:43:14.117Z,8156.00
2019-04-14T07:44:15.107Z,8156.00
2019-04-14T07:45:14.037Z,8208.00
2019-04-14T07:46:14.083Z,8284.00
2019-04-14T07:47:14.110Z,8336.00
2019-04-14T07:48:14.152Z,8300.00
2019-04-14T07:49:14.185Z,8176.00
2019-04-14T07:50:15.145Z,7868.00
2019-04-14T07:51:14.258Z,7700.00
2019-04-14T07:52:14.294Z,7664.00
2019-04-14T07:53:14.330Z,7724.00
2019-04-14T07:54:14.369Z,7704.00
2019-04-14T07:55:14.425Z,7680.00
2019-04-14T07:56:14.447Z,7804.00
2019-04-14T07:57:14.479Z,7852.00
2019-04-14T07:58:14.517Z,7868.00
2019-04-14T07:59:14.553Z,7808.00
2019-04-14T08:00:14.591Z,7896.00
2019-04-14T08:01:14.625Z,7956.00
2019-04-14T08:02:14.664Z,8120.00
2019-04-14T08:03:14.700Z,8304.00
2019-04-14T08:04:14.738Z,8544.00
2019-04-14T08:05:14.781Z,8768.00
2019-04-14T08:06:14.826Z,8964.00
2019-04-14T08:07:14.855Z,8892.00
2019-04-14T08:08:14.885Z,8812.00
2019-04-14T08:09:14.922Z,8808.00
2019-04-14T08:10:14.958Z,8836.00
2019-04-14T08:11:14.996Z,8876.00
2019-04-14T08:12:15.038Z,8896.00
2019-04-14T08:13:15.073Z,8896.00
2019-04-14T08:14:15.160Z,9012.00
2019-04-14T08:15:15.144Z,9184.00
2019-04-14T08:16:15.185Z,9268.00
2019-04-14T08:17:15.224Z,9320.00
2019-04-14T08:18:15.259Z,9384.00
2019-04-14T08:19:15.300Z,9400.00
2019-04-14T08:20:26.963Z,9040.00
2019-04-14T08:21:15.365Z,8588.00
2019-04-14T08:22:15.405Z,8336.00
2019-04-14T08:23:15.447Z,8420.00
2019-04-14T08:24:15.478Z,8716.00
2019-04-14T08:25:15.518Z,9176.00
2019-04-14T08:26:15.552Z,9552.00
2019-04-14T08:27:15.589Z,9976.00
2019-04-14T08:28:15.624Z,10368.00
2019-04-14T08:29:15.668Z,10600.00
2019-04-14T08:30:15.700Z,10564.00
2019-04-14T08:31:15.737Z,10504.00
2019-04-14T08:32:15.774Z,10340.00
2019-04-14T08:33:15.811Z,10268.00
2019-04-14T08:34:15.852Z,10040.00
2019-04-14T08:35:15.894Z,10344.00
2019-04-14T08:36:15.934Z,10304.00
2019-04-14T08:37:15.961Z,10904.00
2019-04-14T08:38:16.000Z,11324.00
2019-04-14T08:39:16.036Z,11736.00
2019-04-14T08:40:16.224Z,10872.00
2019-04-14T08:41:16.112Z,10416.00
2019-04-14T08:42:16.152Z,10116.00
2019-04-14T08:43:16.189Z,9768.00
2019-04-14T08:44:16.223Z,9404.00
2019-04-14T08:45:16.266Z,9660.00
2019-04-14T08:46:16.300Z,9636.00
2019-04-14T08:47:16.339Z,9732.00
2019-04-14T08:48:16.375Z,10244.00
2019-04-14T08:49:16.415Z,9956.00
2019-04-14T08:50:16.471Z,10040.00
2019-04-14T08:51:16.488Z,10624.00
2019-04-14T08:52:16.543Z,10424.00
2019-04-14T08:53:16.566Z,10244.00
2019-04-14T08:54:16.609Z,10832.00
2019-04-14T08:55:16.641Z,11252.00
2019-04-14T08:56:16.677Z,11040.00
2019-04-14T08:57:16.715Z,10404.00
2019-04-14T08:58:16.755Z,9736.00
2019-04-14T08:59:16.790Z,9476.00
2019-04-14T09:00:16.830Z,9176.00
2019-04-14T09:01:16.865Z,8964.00
2019-04-14T09:02:16.905Z,8944.00
2019-04-14T09:03:16.942Z,9084.00
2019-04-14T09:04:16.982Z,9316.00
2019-04-14T09:05:17.016Z,9472.00
2019-04-14T09:06:17.056Z,9612.00
2019-04-14T09:07:17.092Z,9904.00
2019-04-14T09:08:17.129Z,10232.00
2019-04-14T09:09:17.176Z,10716.00
2019-04-14T09:10:17.218Z,10856.00
2019-04-14T09:11:17.245Z,11136.00
2019-04-14T09:12:17.283Z,11264.00
2019-04-14T09:13:17.324Z,11448.00
2019-04-14T09:14:17.363Z,11828.00
2019-04-14T09:15:17.395Z,12328.00
2019-04-14T09:16:17.499Z,12828.00
2019-04-14T09:17:17.475Z,13332.00
2019-04-14T09:18:17.509Z,13760.00
2019-04-14T09:19:17.549Z,14240.00
2019-04-14T09:20:17.592Z,14504.00
2019-04-14T09:21:17.629Z,14808.00
2019-04-14T09:22:17.662Z,15148.00
2019-04-14T09:23:17.708Z,15480.00
2019-04-14T09:24:17.750Z,15748.00
2019-04-14T09:25:17.777Z,16016.00
2019-04-14T09:26:17.820Z,16296.00
2019-04-14T09:27:17.857Z,16628.00
2019-04-14T09:28:17.892Z,17152.00
2019-04-14T09:29:17.933Z,17600.00
2019-04-14T09:30:17.979Z,17760.00
2019-04-14T09:31:18.011Z,18080.00
2019-04-14T09:32:18.044Z,18496.00
2019-04-14T09:33:18.091Z,18912.00
2019-04-14T09:34:18.137Z,19104.00
2019-04-14T09:35:18.172Z,18752.00
2019-04-14T09:36:18.199Z,17248.00
2019-04-14T09:37:18.240Z,15584.00
2019-04-14T09:38:18.276Z,14996.00
2019-04-14T09:39:18.318Z,14536.00
2019-04-14T09:40:18.358Z,14896.00
2019-04-14T09:41:18.394Z,15440.00
2019-04-14T09:42:18.434Z,15344.00
2019-04-14T09:43:18.477Z,15316.00
2019-04-14T09:44:18.512Z,15764.00
2019-04-14T09:45:18.558Z,16464.00
2019-04-14T09:46:18.590Z,17088.00
2019-04-14T09:47:18.637Z,16928.00
2019-04-14T09:48:18.669Z,16056.00
2019-04-14T09:49:18.713Z,16200.00
2019-04-14T09:50:18.748Z,18080.00
2019-04-14T09:51:18.789Z,18528.00
2019-04-14T09:52:18.828Z,19072.00
2019-04-14T09:53:18.874Z,19936.00
2019-04-14T09:54:18.907Z,20224.00
2019-04-14T09:55:18.945Z,20480.00
2019-04-14T09:56:18.986Z,20448.00
2019-04-14T09:57:19.035Z,20704.00
2019-04-14T09:58:19.072Z,20800.00
2019-04-14T09:59:19.105Z,20928.00
2019-04-14T10:00:19.153Z,20960.00
2019-04-14T10:01:19.184Z,20832.00
2019-04-14T10:02:19.226Z,20576.00
2019-04-14T10:03:19.266Z,20640.00
2019-04-14T10:04:19.304Z,20736.00
2019-04-14T10:05:19.345Z,20800.00
2019-04-14T10:06:19.383Z,20448.00
2019-04-14T10:07:19.422Z,20160.00
2019-04-14T10:08:19.464Z,19776.00
2019-04-14T10:09:19.502Z,19712.00
2019-04-14T10:10:19.559Z,20192.00
2019-04-14T10:11:19.587Z,20672.00
2019-04-14T10:12:19.623Z,20896.00
2019-04-14T10:13:19.663Z,21216.00
2019-04-14T10:14:19.709Z,20896.00
2019-04-14T10:15:19.752Z,20352.00
2019-04-14T10:16:19.782Z,20224.00
2019-04-14T10:17:19.975Z,20384.00
2019-04-14T10:18:19.863Z,20512.00
2019-04-14T10:19:19.902Z,20544.00
2019-04-14T10:20:19.941Z,19904.00
2019-04-14T10:21:20.004Z,18528.00
2019-04-14T10:22:20.024Z,17504.00
2019-04-14T10:23:20.063Z,17280.00
2019-04-14T10:24:20.101Z,16800.00
2019-04-14T10:25:20.152Z,14552.00
2019-04-14T10:26:20.190Z,12332.00
2019-04-14T10:27:20.229Z,10960.00
2019-04-14T10:28:20.268Z,9600.00
2019-04-14T10:29:20.303Z,8592.00
2019-04-14T10:30:20.357Z,7736.00
2019-04-14T10:31:20.394Z,6880.00
2019-04-14T10:32:20.437Z,6376.00
2019-04-14T10:33:20.472Z,6104.00
2019-04-14T10:34:20.508Z,6000.00
2019-04-14T10:35:20.544Z,5820.00
2019-04-14T10:36:20.584Z,5584.00
2019-04-14T10:37:20.625Z,5668.00
2019-04-14T10:38:20.664Z,6520.00
2019-04-14T10:39:20.706Z,7668.00
2019-04-14T10:40:20.760Z,8584.00
2019-04-14T10:41:20.783Z,9128.00
2019-04-14T10:42:20.824Z,9540.00
2019-04-14T10:43:20.863Z,9360.00
2019-04-14T10:44:20.906Z,8672.00
2019-04-14T10:45:20.944Z,8100.00
2019-04-14T10:46:20.983Z,7220.00
2019-04-14T10:47:21.028Z,6344.00
2019-04-14T10:48:21.066Z,5520.00
2019-04-14T10:49:21.100Z,5412.00
2019-04-14T10:50:30.651Z,5480.00
2019-04-14T10:51:29.966Z,5684.00
2019-04-14T10:52:21.226Z,5840.00
2019-04-14T10:53:21.259Z,5888.00
2019-04-14T10:54:21.297Z,5676.00
2019-04-14T10:55:21.336Z,5680.00
2019-04-14T10:56:21.385Z,5672.00
2019-04-14T10:57:21.416Z,5728.00
2019-04-14T10:58:21.462Z,5856.00
2019-04-14T10:59:21.500Z,5784.00
2019-04-14T11:00:21.532Z,5776.00
2019-04-14T11:01:21.572Z,6024.00
2019-04-14T11:02:21.612Z,6332.00
2019-04-14T11:03:21.648Z,6472.00
2019-04-14T11:04:21.689Z,6424.00
2019-04-14T11:05:21.737Z,6540.00
2019-04-14T11:06:21.770Z,6672.00
2019-04-14T11:07:21.806Z,6800.00
2019-04-14T11:08:21.847Z,6520.00
2019-04-14T11:09:21.889Z,6716.00
2019-04-14T11:10:21.927Z,7148.00
2019-04-14T11:11:21.962Z,6768.00
2019-04-14T11:12:22.000Z,6452.00
2019-04-14T11:13:22.041Z,6324.00
2019-04-14T11:14:22.131Z,6236.00
2019-04-14T11:15:22.121Z,6484.00
2019-04-14T11:16:22.164Z,6576.00
2019-04-14T11:17:22.203Z,5872.00
2019-04-14T11:18:22.234Z,5500.00
2019-04-14T11:19:22.280Z,5864.00
2019-04-14T11:20:22.320Z,6568.00
2019-04-14T11:21:22.365Z,6964.00
2019-04-14T11:22:22.391Z,7140.00
2019-04-14T11:23:22.439Z,7096.00
2019-04-14T11:24:24.052Z,6856.00
2019-04-14T11:25:22.511Z,6688.00
2019-04-14T11:26:22.544Z,6352.00
2019-04-14T11:27:22.587Z,6120.00
2019-04-14T11:28:22.628Z,6108.00
2019-04-14T11:29:22.670Z,6248.00
2019-04-14T11:30:22.701Z,6068.00
2019-04-14T11:31:22.740Z,5724.00
2019-04-14T11:32:22.784Z,5756.00
2019-04-14T11:33:22.817Z,5944.00
2019-04-14T11:34:22.857Z,6084.00
2019-04-14T11:35:22.902Z,6088.00
2019-04-14T11:36:22.935Z,5964.00
2019-04-14T11:37:22.980Z,5968.00
2019-04-14T11:38:23.011Z,5796.00
2019-04-14T11:39:23.057Z,5364.00
2019-04-14T11:40:23.087Z,5076.00
2019-04-14T11:41:23.146Z,4912.00
2019-04-14T11:42:23.171Z,4728.00
2019-04-14T11:43:23.213Z,4508.00
2019-04-14T11:44:23.265Z,4416.00
2019-04-14T11:45:23.305Z,4300.00
2019-04-14T11:46:23.321Z,4168.00
2019-04-14T11:47:23.469Z,4172.00
2019-04-14T11:48:23.405Z,4272.00
2019-04-14T11:49:23.440Z,4372.00
2019-04-14T11:50:23.479Z,4444.00
2019-04-14T11:51:23.529Z,4428.00
2019-04-14T11:52:23.561Z,4348.00
2019-04-14T11:53:23.608Z,4256.00
2019-04-14T11:54:23.640Z,4164.00
2019-04-14T11:55:23.668Z,4112.00
2019-04-14T11:56:23.708Z,4208.00
2019-04-14T11:57:23.753Z,4364.00
2019-04-14T11:58:23.792Z,4484.00
2019-04-14T11:59:23.826Z,4576.00
2019-04-14T12:00:23.866Z,4804.00
2019-04-14T12:01:23.918Z,5156.00
2019-04-14T12:02:23.968Z,5256.00
2019-04-14T12:03:23.988Z,5224.00
2019-04-14T12:04:24.026Z,5136.00
2019-04-14T12:05:24.057Z,5032.00
2019-04-14T12:06:24.097Z,4776.00
2019-04-14T12:07:24.134Z,4712.00
2019-04-14T12:08:24.171Z,4952.00
2019-04-14T12:09:24.215Z,5728.00
2019-04-14T12:10:24.247Z,6340.00
2019-04-14T12:11:24.284Z,6100.00
2019-04-14T12:12:24.323Z,5680.00
2019-04-14T12:13:24.362Z,5492.00
2019-04-14T12:14:24.401Z,5568.00
2019-04-14T12:15:24.439Z,6040.00
2019-04-14T12:16:24.477Z,6148.00
2019-04-14T12:17:24.516Z,5992.00
2019-04-14T12:18:24.555Z,5412.00
2019-04-14T12:19:24.641Z,5284.00
2019-04-14T12:20:24.630Z,5492.00
2019-04-14T12:21:24.668Z,5592.00
2019-04-14T12:22:24.708Z,5552.00
2019-04-14T12:23:24.747Z,5276.00
2019-04-14T12:24:24.800Z,5888.00
2019-04-14T12:25:24.821Z,6392.00
2019-04-14T12:26:24.874Z,6356.00
2019-04-14T12:27:24.904Z,6236.00
2019-04-14T12:28:26.204Z,6384.00
2019-04-14T12:29:26.034Z,6556.00
2019-04-14T12:30:25.026Z,7376.00
2019-04-14T12:31:25.080Z,8532.00
2019-04-14T12:32:25.100Z,8872.00
2019-04-14T12:33:25.137Z,9000.00
2019-04-14T12:34:25.190Z,8904.00
2019-04-14T12:35:25.213Z,9168.00
2019-04-14T12:36:25.252Z,9828.00
2019-04-14T12:37:25.343Z,10212.00
2019-04-14T12:38:25.329Z,9956.00
2019-04-14T12:39:25.380Z,9384.00
2019-04-14T12:40:25.404Z,8608.00
2019-04-14T12:41:26.576Z,8112.00